createdAt,value
2018-07-16T00:00:32.209Z,81.25
2018-07-16T00:03:00.737Z,81.57
2018-07-16T00:05:29.336Z,81.53
2018-07-16T00:07:57.884Z,80.79
2018-07-16T00:10:26.399Z,82.44
2018-07-16T00:12:54.996Z,83.78
2018-07-16T00:15:23.544Z,82.99
2018-07-16T00:17:53.102Z,82.57
2018-07-16T00:20:21.624Z,82.93
2018-07-16T00:22:50.181Z,82.75
2018-07-16T00:25:18.730Z,82.19
2018-07-16T00:27:47.281Z,83.81
2018-07-16T00:30:15.801Z,83.24
2018-07-16T00:32:44.351Z,83.92
2018-07-16T00:35:12.905Z,84.07
2018-07-16T00:37:41.487Z,84.34
2018-07-16T00:40:10.402Z,86.18
2018-07-16T00:42:38.953Z,84.83
2018-07-16T00:45:07.570Z,82.19
2018-07-16T00:47:36.125Z,83.24
2018-07-16T00:50:04.665Z,84.13
2018-07-16T00:52:33.216Z,84.34
2018-07-16T00:55:01.748Z,83.32
2018-07-16T00:57:30.317Z,82.93
2018-07-16T00:59:58.861Z,84.69
2018-07-16T01:02:27.420Z,84.54
2018-07-16T01:04:55.948Z,84.17
2018-07-16T01:07:24.500Z,86.58
2018-07-16T01:09:53.220Z,87.61
2018-07-16T01:12:21.775Z,86.57
2018-07-16T01:14:50.295Z,86.83
2018-07-16T01:17:18.853Z,86.54
2018-07-16T01:19:47.376Z,86.39
2018-07-16T01:22:15.935Z,85.51
2018-07-16T01:24:44.452Z,85.48
2018-07-16T01:27:13.001Z,84.85
2018-07-16T01:29:41.508Z,85.57
2018-07-16T01:32:10.046Z,85.52
2018-07-16T01:34:38.604Z,85.49
2018-07-16T01:37:07.185Z,84.57
2018-07-16T01:39:35.717Z,84.20
2018-07-16T01:42:04.648Z,84.65
2018-07-16T01:44:33.178Z,85.76
2018-07-16T01:47:01.737Z,85.18
2018-07-16T01:49:30.321Z,85.68
2018-07-16T01:51:58.884Z,84.30
2018-07-16T01:54:27.413Z,84.92
2018-07-16T01:56:55.933Z,87.02
2018-07-16T01:59:24.501Z,86.01
2018-07-16T02:01:54.073Z,85.73
2018-07-16T02:04:22.631Z,85.96
2018-07-16T02:06:51.157Z,85.70
2018-07-16T02:09:19.710Z,85.75
2018-07-16T02:11:48.232Z,86.35
2018-07-16T02:14:16.792Z,89.47
2018-07-16T02:16:45.396Z,89.44
2018-07-16T02:19:13.952Z,87.09
2018-07-16T02:21:42.473Z,88.62
2018-07-16T02:24:11.028Z,88.56
2018-07-16T02:26:39.556Z,88.76
2018-07-16T02:29:08.096Z,87.89
2018-07-16T02:31:36.640Z,87.70
2018-07-16T02:34:05.272Z,87.23
2018-07-16T02:36:33.841Z,86.88
2018-07-16T02:39:02.413Z,87.64
2018-07-16T02:41:30.980Z,87.59
2018-07-16T02:43:59.538Z,89.08
2018-07-16T02:46:28.076Z,89.09
2018-07-16T02:48:56.693Z,88.97
2018-07-16T02:51:26.308Z,88.23
2018-07-16T02:53:54.896Z,86.92
2018-07-16T02:56:23.473Z,87.39
2018-07-16T02:58:52.001Z,89.03
2018-07-16T03:01:20.584Z,88.73
2018-07-16T03:03:49.212Z,89.94
2018-07-16T03:06:17.753Z,88.59
2018-07-16T03:08:46.305Z,88.26
2018-07-16T03:11:14.820Z,88.41
2018-07-16T03:13:43.418Z,87.18
2018-07-16T03:16:11.958Z,88.27
2018-07-16T03:18:40.531Z,87.97
2018-07-16T03:21:09.082Z,88.80
2018-07-16T03:23:37.655Z,87.90
2018-07-16T03:26:06.202Z,88.47
2018-07-16T03:28:34.772Z,88.37
2018-07-16T03:31:03.332Z,87.92
2018-07-16T03:33:31.908Z,86.34
2018-07-16T03:36:00.480Z,86.41
2018-07-16T03:38:28.984Z,85.59
2018-07-16T03:40:57.529Z,86.21
2018-07-16T03:43:26.540Z,85.26
2018-07-16T03:45:55.080Z,87.51
2018-07-16T03:48:23.587Z,87.40
2018-07-16T03:50:52.166Z,90.03
2018-07-16T03:53:20.676Z,88.52
2018-07-16T03:55:49.999Z,88.43
2018-07-16T03:58:19.159Z,89.33
2018-07-16T04:00:48.708Z,88.32
2018-07-16T04:03:18.142Z,88.25
2018-07-16T04:05:47.744Z,87.57
2018-07-16T04:08:16.747Z,88.43
2018-07-16T04:10:45.301Z,88.30
2018-07-16T04:13:13.843Z,89.06
2018-07-16T04:15:42.405Z,90.24
2018-07-16T04:18:14.612Z,89.84
2018-07-16T04:20:43.149Z,89.61
2018-07-16T04:23:11.684Z,89.24
2018-07-16T04:25:40.384Z,89.12
2018-07-16T04:28:09.248Z,88.69
2018-07-16T04:30:37.800Z,89.15
2018-07-16T04:33:06.308Z,87.23
2018-07-16T04:35:34.896Z,88.41
2018-07-16T04:38:03.420Z,88.36
2018-07-16T04:40:32.022Z,87.66
2018-07-16T04:43:00.559Z,86.98
2018-07-16T04:45:29.148Z,86.87
2018-07-16T04:47:57.665Z,87.63
2018-07-16T04:50:26.804Z,88.13
2018-07-16T04:52:55.332Z,89.18
2018-07-16T04:55:23.897Z,89.93
2018-07-16T04:57:52.903Z,89.35
2018-07-16T05:00:21.517Z,88.38
2018-07-16T05:02:50.048Z,88.78
2018-07-16T05:05:18.612Z,89.01
2018-07-16T05:07:47.160Z,88.66
2018-07-16T05:10:15.739Z,89.41
2018-07-16T05:12:44.264Z,88.90
2018-07-16T05:15:12.824Z,89.23
2018-07-16T05:17:41.364Z,88.47
2018-07-16T05:20:10.050Z,88.90
2018-07-16T05:22:38.575Z,89.75
2018-07-16T05:25:07.144Z,89.35
2018-07-16T05:27:35.660Z,89.47
2018-07-16T05:30:04.232Z,87.85
2018-07-16T05:32:32.879Z,88.02
2018-07-16T05:35:01.396Z,87.00
2018-07-16T05:37:29.892Z,86.17
2018-07-16T05:39:58.420Z,88.33
2018-07-16T05:42:27.232Z,87.00
2018-07-16T05:44:55.744Z,85.65
2018-07-16T05:47:24.285Z,86.70
2018-07-16T05:49:52.800Z,86.82
2018-07-16T05:52:21.368Z,88.37
2018-07-16T05:54:49.894Z,86.22
2018-07-16T05:57:18.453Z,87.71
2018-07-16T05:59:46.996Z,86.92
2018-07-16T06:02:19.561Z,85.42
2018-07-16T06:04:48.068Z,85.38
2018-07-16T06:07:16.612Z,84.06
2018-07-16T06:09:45.412Z,83.62
2018-07-16T06:12:13.994Z,83.13
2018-07-16T06:14:43.870Z,84.16
2018-07-16T06:17:22.901Z,83.56
2018-07-16T06:19:57.982Z,84.27
2018-07-16T06:32:19.370Z,82.50
2018-07-16T06:34:54.924Z,81.38
2018-07-16T06:37:28.080Z,80.97
2018-07-16T06:40:01.597Z,79.97
2018-07-16T06:42:34.143Z,80.29
2018-07-16T06:45:04.614Z,79.12
2018-07-16T06:47:36.231Z,78.12
2018-07-16T06:50:06.239Z,76.40
2018-07-16T06:52:35.068Z,76.25
2018-07-16T06:55:03.836Z,76.19
2018-07-16T06:57:32.295Z,77.02
2018-07-16T07:00:00.938Z,76.07
2018-07-16T07:02:30.622Z,78.32
2018-07-16T07:05:01.005Z,76.99
2018-07-16T07:07:30.999Z,76.84
2018-07-16T07:10:01.199Z,76.56
2018-07-16T07:12:30.293Z,76.15
2018-07-16T07:14:59.230Z,77.66
2018-07-16T07:17:28.084Z,76.77
2018-07-16T07:19:57.360Z,75.43
2018-07-16T07:22:28.744Z,75.39
2018-07-16T07:24:58.648Z,75.82
2018-07-16T07:27:31.384Z,75.32
2018-07-16T07:29:59.896Z,75.67
2018-07-16T07:32:30.338Z,74.28
2018-07-16T07:34:59.600Z,73.17
2018-07-16T07:37:30.779Z,74.06
2018-07-16T07:39:59.526Z,73.67
2018-07-16T07:42:28.501Z,71.78
2018-07-16T07:44:57.464Z,71.03
2018-07-16T07:47:26.028Z,70.10
2018-07-16T07:49:57.810Z,69.66
2018-07-16T07:52:26.821Z,69.11
2018-07-16T07:55:00.181Z,69.92
2018-07-16T07:57:32.648Z,70.47
2018-07-16T08:00:01.391Z,68.76
2018-07-16T08:02:30.094Z,66.61
2018-07-16T08:05:01.441Z,67.12
2018-07-16T08:07:30.905Z,66.24
2018-07-16T08:10:00.661Z,66.33
2018-07-16T08:12:29.268Z,64.94
2018-07-16T08:14:58.608Z,65.66
2018-07-16T08:17:27.313Z,64.58
2018-07-16T08:19:55.848Z,62.99
2018-07-16T08:22:24.434Z,63.77
2018-07-16T08:24:53.168Z,63.25
2018-07-16T08:27:21.765Z,63.04
2018-07-16T08:29:53.260Z,61.66
2018-07-16T08:32:21.835Z,62.25
2018-07-16T08:34:50.384Z,61.53
2018-07-16T08:37:18.921Z,61.83
2018-07-16T08:39:47.508Z,61.50
2018-07-16T08:42:16.292Z,60.43
2018-07-16T08:44:46.255Z,60.26
2018-07-16T08:47:16.599Z,61.46
2018-07-16T08:49:46.294Z,59.25
2018-07-16T08:52:15.944Z,59.05
2018-07-16T08:54:46.900Z,58.61
2018-07-16T08:57:16.250Z,58.95
2018-07-16T08:59:48.895Z,59.35
2018-07-16T09:02:19.268Z,60.25
2018-07-16T09:04:47.899Z,59.81
2018-07-16T09:07:17.410Z,60.14
2018-07-16T09:09:46.056Z,58.70
2018-07-16T09:15:11.009Z,58.72
2018-07-16T09:17:51.335Z,58.23
2018-07-16T09:20:34.775Z,57.78
2018-07-16T09:23:14.482Z,57.60
2018-07-16T09:25:52.601Z,57.18
2018-07-16T09:28:32.048Z,56.48
2018-07-16T09:31:08.149Z,57.83
2018-07-16T09:33:47.474Z,56.70
2018-07-16T09:36:26.718Z,55.05
2018-07-16T09:39:02.706Z,55.65
2018-07-16T09:44:25.152Z,55.10
2018-07-16T09:47:02.886Z,57.06
2018-07-16T09:49:41.846Z,57.66
2018-07-16T09:52:36.348Z,56.74
2018-07-16T09:55:18.540Z,54.76
2018-07-16T09:57:47.235Z,53.76
2018-07-16T10:00:19.885Z,55.69
2018-07-16T10:02:49.387Z,54.72
2018-07-16T10:05:23.481Z,52.54
2018-07-16T10:07:53.170Z,53.14
2018-07-16T10:10:22.192Z,53.35
2018-07-16T10:12:54.207Z,52.76
2018-07-16T10:15:23.149Z,52.53
2018-07-16T10:17:52.437Z,50.77
2018-07-16T10:20:21.203Z,51.42
2018-07-16T10:22:49.736Z,49.80
2018-07-16T10:25:18.284Z,49.30
2018-07-16T10:27:46.856Z,51.29
2018-07-16T10:30:15.430Z,49.89
2018-07-16T10:32:44.090Z,49.22
2018-07-16T10:35:12.799Z,48.29
2018-07-16T10:37:42.180Z,48.50
2018-07-16T10:40:10.739Z,48.50
2018-07-16T10:42:39.289Z,47.20
2018-07-16T10:45:08.471Z,48.59
2018-07-16T10:47:37.009Z,48.47
2018-07-16T10:50:05.866Z,49.19
2018-07-16T10:52:34.629Z,48.81
2018-07-16T10:55:03.661Z,48.32
2018-07-16T10:57:32.533Z,48.57
2018-07-16T11:00:01.079Z,48.50
2018-07-16T11:02:29.623Z,48.24
2018-07-16T11:04:58.218Z,49.13
2018-07-16T11:07:26.941Z,48.52
2018-07-16T11:09:55.719Z,48.28
2018-07-16T11:12:24.508Z,48.23
2018-07-16T11:14:54.233Z,48.17
2018-07-16T11:17:28.088Z,46.25
2018-07-16T11:19:57.268Z,47.60
2018-07-16T11:22:26.865Z,46.95
2018-07-16T11:24:56.216Z,46.60
2018-07-16T11:27:24.965Z,45.81
2018-07-16T11:29:53.584Z,44.90
2018-07-16T11:32:22.169Z,47.08
2018-07-16T11:34:53.391Z,46.38
2018-07-16T11:37:22.009Z,46.04
2018-07-16T11:39:50.586Z,46.26
2018-07-16T11:42:19.103Z,45.94
2018-07-16T11:44:47.916Z,43.67
2018-07-16T11:47:16.666Z,44.29
2018-07-16T11:49:46.070Z,45.43
2018-07-16T11:52:14.758Z,46.34
2018-07-16T11:54:43.268Z,43.18
2018-07-16T11:57:12.438Z,44.23
2018-07-16T11:59:41.060Z,44.16
2018-07-16T12:02:09.768Z,43.86
2018-07-16T12:04:38.304Z,44.80
2018-07-16T12:07:08.063Z,41.91
2018-07-16T12:09:36.647Z,41.75
2018-07-16T12:12:05.314Z,41.42
2018-07-16T12:14:34.077Z,43.72
2018-07-16T12:17:02.829Z,41.94
2018-07-16T12:19:31.884Z,44.47
2018-07-16T12:22:00.440Z,44.48
2018-07-16T12:24:29.187Z,44.18
2018-07-16T12:26:57.881Z,40.11
2018-07-16T12:29:26.710Z,41.49
2018-07-16T12:31:55.349Z,42.80
2018-07-16T12:34:23.872Z,43.41
2018-07-16T12:36:52.619Z,41.28
2018-07-16T12:39:21.292Z,42.60
2018-07-16T12:41:51.675Z,40.80
2018-07-16T12:44:20.528Z,42.20
2018-07-16T12:46:49.848Z,42.01
2018-07-16T12:49:18.352Z,42.74
2018-07-16T12:51:52.021Z,41.40
2018-07-16T12:54:20.533Z,40.23
2018-07-16T12:56:49.392Z,39.92
2018-07-16T12:59:17.923Z,37.67
2018-07-16T13:01:47.783Z,38.51
2018-07-16T13:04:16.948Z,37.03
2018-07-16T13:06:46.714Z,39.05
2018-07-16T13:09:15.389Z,37.99
2018-07-16T13:11:52.245Z,40.44
2018-07-16T13:14:21.448Z,38.63
2018-07-16T13:16:50.077Z,39.12
2018-07-16T13:19:18.991Z,38.37
2018-07-16T13:21:47.674Z,39.02
2018-07-16T13:24:16.635Z,38.33
2018-07-16T13:26:45.393Z,37.17
2018-07-16T13:29:14.350Z,38.25
2018-07-16T13:31:42.901Z,37.84
2018-07-16T13:34:11.432Z,37.05
2018-07-16T13:36:40.549Z,36.22
2018-07-16T13:39:10.164Z,36.78
2018-07-16T13:41:38.760Z,35.55
2018-07-16T13:44:08.007Z,35.11
2018-07-16T13:46:38.088Z,35.34
2018-07-16T13:49:07.376Z,35.08
2018-07-16T13:51:36.864Z,33.25
2018-07-16T13:54:05.391Z,33.41
2018-07-16T13:56:34.167Z,34.50
2018-07-16T13:59:03.121Z,33.96
2018-07-16T14:01:31.697Z,33.02
2018-07-16T14:04:00.873Z,35.70
2018-07-16T14:06:30.553Z,36.51
2018-07-16T14:08:59.160Z,37.24
2018-07-16T14:11:27.703Z,34.20
2018-07-16T14:13:56.345Z,36.16
2018-07-16T14:16:25.465Z,36.07
2018-07-16T14:18:54.043Z,37.80
2018-07-16T14:21:22.564Z,38.80
2018-07-16T14:23:51.129Z,38.13
2018-07-16T14:26:19.677Z,36.31
2018-07-16T14:28:48.613Z,35.00
2018-07-16T14:31:17.165Z,35.09
2018-07-16T14:33:46.126Z,35.33
2018-07-16T14:36:14.766Z,35.50
2018-07-16T14:38:43.442Z,35.93
2018-07-16T14:41:14.923Z,34.81
2018-07-16T14:43:43.761Z,35.48
2018-07-16T14:46:12.280Z,34.47
2018-07-16T14:48:40.973Z,35.42
2018-07-16T14:51:09.578Z,36.22
2018-07-16T14:53:38.820Z,37.34
2018-07-16T14:56:08.171Z,34.16
2018-07-16T14:58:37.181Z,34.07
2018-07-16T15:01:05.928Z,34.27
2018-07-16T15:03:34.469Z,32.33
2018-07-16T15:06:02.988Z,32.07
2018-07-16T15:08:31.553Z,31.60
2018-07-16T15:11:00.386Z,34.50
2018-07-16T15:13:28.922Z,35.19
2018-07-16T15:15:57.936Z,36.21
2018-07-16T15:18:26.468Z,36.28
2018-07-16T15:20:55.127Z,34.93
2018-07-16T15:23:28.512Z,33.62
2018-07-16T15:25:57.420Z,32.97
2018-07-16T15:28:25.960Z,35.98
2018-07-16T15:30:54.462Z,37.34
2018-07-16T15:33:23.007Z,36.84
2018-07-16T15:35:51.567Z,36.12
2018-07-16T15:38:20.135Z,35.70
2018-07-16T15:40:48.698Z,35.33
2018-07-16T15:43:17.261Z,34.27
2018-07-16T15:45:46.641Z,35.67
2018-07-16T15:48:15.276Z,36.03
2018-07-16T15:50:43.788Z,36.44
2018-07-16T15:53:12.345Z,36.94
2018-07-16T15:55:41.745Z,36.91
2018-07-16T15:58:12.197Z,37.57
2018-07-16T16:00:42.368Z,38.39
2018-07-16T16:03:11.833Z,38.07
2018-07-16T16:05:41.636Z,38.12
2018-07-16T16:08:12.900Z,37.06
2018-07-16T16:10:41.756Z,37.92
2018-07-16T16:13:11.319Z,38.17
2018-07-16T16:15:40.768Z,38.67
2018-07-16T16:18:10.073Z,38.82
2018-07-16T16:20:40.513Z,38.39
2018-07-16T16:23:09.161Z,38.74
2018-07-16T16:25:37.733Z,38.39
2018-07-16T16:28:06.743Z,36.91
2018-07-16T16:30:36.019Z,38.45
2018-07-16T16:33:04.675Z,38.48
2018-07-16T16:35:33.258Z,37.60
2018-07-16T16:38:02.132Z,37.88
2018-07-16T16:40:30.805Z,35.79
2018-07-16T16:42:59.425Z,35.47
2018-07-16T16:45:28.096Z,34.75
2018-07-16T16:47:56.681Z,36.47
2018-07-16T16:50:25.261Z,36.77
2018-07-16T16:52:53.881Z,35.33
2018-07-16T16:55:22.384Z,36.17
2018-07-16T16:57:50.916Z,31.24
2018-07-16T17:00:19.737Z,33.51
2018-07-16T17:02:48.152Z,37.08
2018-07-16T17:05:16.712Z,38.85
2018-07-16T17:07:45.231Z,39.90
2018-07-16T17:10:13.787Z,38.71
2018-07-16T17:12:42.718Z,42.56
2018-07-16T17:15:14.081Z,43.51
2018-07-16T17:17:42.600Z,43.93
2018-07-16T17:20:12.015Z,44.08
2018-07-16T17:22:40.549Z,45.36
2018-07-16T17:25:09.121Z,44.36
2018-07-16T17:27:37.642Z,44.43
2018-07-16T17:30:06.277Z,47.02
2018-07-16T17:32:34.803Z,47.03
2018-07-16T17:35:03.958Z,47.51
2018-07-16T17:37:32.600Z,46.94
2018-07-16T17:40:01.460Z,44.34
2018-07-16T17:42:31.527Z,46.88
2018-07-16T17:45:00.277Z,47.78
2018-07-16T17:47:28.780Z,49.05
2018-07-16T17:49:57.321Z,46.48
2018-07-16T17:52:25.825Z,44.58
2018-07-16T17:54:54.364Z,41.07
2018-07-16T17:57:22.873Z,37.85
2018-07-16T17:59:51.431Z,36.02
2018-07-16T18:02:19.968Z,39.64
2018-07-16T18:04:48.516Z,43.01
2018-07-16T18:07:20.866Z,44.35
2018-07-16T18:09:50.296Z,37.71
2018-07-16T18:12:48.066Z,37.85
2018-07-16T18:15:26.130Z,39.48
2018-07-16T18:17:56.606Z,40.52
2018-07-16T18:20:25.251Z,41.56
2018-07-16T18:22:53.764Z,42.08
2018-07-16T18:25:22.337Z,41.69
2018-07-16T18:27:51.362Z,40.26
2018-07-16T18:30:20.045Z,41.30
2018-07-16T18:32:48.565Z,40.03
2018-07-16T18:35:17.224Z,39.67
2018-07-16T18:37:46.100Z,42.23
2018-07-16T18:40:14.580Z,41.54
2018-07-16T18:42:45.981Z,42.89
2018-07-16T18:45:16.649Z,44.33
2018-07-16T18:47:45.453Z,46.43
2018-07-16T18:50:14.021Z,46.53
2018-07-16T18:52:43.474Z,46.19
2018-07-16T18:55:12.003Z,46.41
2018-07-16T18:57:40.566Z,47.84
2018-07-16T19:00:11.673Z,49.34
2018-07-16T19:02:40.234Z,51.21
2018-07-16T19:05:08.827Z,52.00
2018-07-16T19:07:37.377Z,50.67
2018-07-16T19:10:05.903Z,51.08
2018-07-16T19:12:34.444Z,51.53
2018-07-16T19:15:07.705Z,51.56
2018-07-16T19:17:36.247Z,51.67
2018-07-16T19:20:04.796Z,51.95
2018-07-16T19:22:33.349Z,53.57
2018-07-16T19:25:01.865Z,53.52
2018-07-16T19:27:30.421Z,54.50
2018-07-16T19:29:58.930Z,55.56
2018-07-16T19:32:27.494Z,56.64
2018-07-16T19:34:56.066Z,57.66
2018-07-16T19:37:24.616Z,59.10
2018-07-16T19:39:53.154Z,59.64
2018-07-16T19:42:21.742Z,58.39
2018-07-16T19:44:50.281Z,58.19
2018-07-16T19:47:18.856Z,59.95
2018-07-16T19:49:47.397Z,58.46
2018-07-16T19:52:15.990Z,58.96
2018-07-16T19:54:44.769Z,59.81
2018-07-16T19:57:13.340Z,59.61
2018-07-16T19:59:41.859Z,59.02
2018-07-16T20:02:10.425Z,60.35
2018-07-16T20:04:39.245Z,61.29
2018-07-16T20:07:07.819Z,60.72
2018-07-16T20:09:36.408Z,59.42
2018-07-16T20:12:37.384Z,60.83
2018-07-16T20:15:07.900Z,61.39
2018-07-16T20:17:36.437Z,62.23
2018-07-16T20:20:07.800Z,63.13
2018-07-16T20:22:36.404Z,62.45
2018-07-16T20:25:05.664Z,63.13
2018-07-16T20:27:34.224Z,63.78
2018-07-16T20:30:06.691Z,63.41
2018-07-16T20:32:39.428Z,64.42
2018-07-16T20:35:08.169Z,65.27
2018-07-16T20:37:37.275Z,64.60
2018-07-16T20:40:06.772Z,64.88
2018-07-16T20:42:41.397Z,66.90
2018-07-16T20:45:09.909Z,65.04
2018-07-16T20:47:38.451Z,65.61
2018-07-16T20:50:06.960Z,66.26
2018-07-16T20:52:35.504Z,67.31
2018-07-16T20:55:08.750Z,66.36
2018-07-16T20:57:37.472Z,67.29
2018-07-16T21:00:10.426Z,66.36
2018-07-16T21:02:39.265Z,68.20
2018-07-16T21:05:08.759Z,68.12
2018-07-16T21:07:39.336Z,68.07
2018-07-16T21:10:08.855Z,68.00
2018-07-16T21:12:39.733Z,66.79
2018-07-16T21:15:08.728Z,67.34
2018-07-16T21:17:39.375Z,69.12
2018-07-16T21:20:09.037Z,68.99
2018-07-16T21:22:37.601Z,70.12
2018-07-16T21:25:07.461Z,69.25
2018-07-16T21:27:36.130Z,69.00
2018-07-16T21:30:04.953Z,69.33
2018-07-16T21:32:33.513Z,69.79
2018-07-16T21:35:02.054Z,69.82
2018-07-16T21:37:30.553Z,70.42
2018-07-16T21:39:59.177Z,69.82
2018-07-16T21:42:27.793Z,69.72
2018-07-16T21:44:56.523Z,70.49
2018-07-16T21:47:25.064Z,69.59
2018-07-16T21:49:53.618Z,71.32
2018-07-16T21:52:22.845Z,71.23
2018-07-16T21:54:57.500Z,70.51
2018-07-16T21:57:30.192Z,70.05
2018-07-16T22:00:05.626Z,70.48
2018-07-16T22:02:35.237Z,69.80
2018-07-16T22:05:04.958Z,69.59
2018-07-16T22:07:34.015Z,71.88
2018-07-16T22:10:06.540Z,71.09
2018-07-16T22:12:35.720Z,71.64
2018-07-16T22:15:04.994Z,73.50
2018-07-16T22:17:34.030Z,72.79
2018-07-16T22:20:04.194Z,71.88
2018-07-16T22:22:34.676Z,72.02
2018-07-16T22:25:05.606Z,71.84
2018-07-16T22:27:43.746Z,71.82
2018-07-16T22:30:17.241Z,71.45
2018-07-16T22:32:52.968Z,71.68
2018-07-16T22:35:30.461Z,71.25
2018-07-16T22:37:59.720Z,71.61
2018-07-16T22:40:28.797Z,71.56
2018-07-16T22:43:02.629Z,72.38
2018-07-16T22:45:38.246Z,71.93
2018-07-16T22:48:09.454Z,71.93
2018-07-16T22:50:45.542Z,72.52
2018-07-16T22:53:15.398Z,73.46
2018-07-16T22:55:48.410Z,73.12
2018-07-16T22:58:23.594Z,72.55
2018-07-16T23:00:56.875Z,74.21
2018-07-16T23:03:30.489Z,73.56
2018-07-16T23:06:01.100Z,74.23
2018-07-16T23:08:32.045Z,74.71
2018-07-16T23:11:05.819Z,73.86
2018-07-16T23:13:38.663Z,74.23
2018-07-16T23:16:12.957Z,74.77
2018-07-16T23:18:49.031Z,74.62
2018-07-16T23:21:33.993Z,73.83
2018-07-16T23:24:03.053Z,75.49
2018-07-16T23:26:33.882Z,76.18
2018-07-16T23:29:05.097Z,76.39
2018-07-16T23:31:33.604Z,76.77
2018-07-16T23:34:02.172Z,78.25
2018-07-16T23:36:30.743Z,77.46
2018-07-16T23:38:59.268Z,78.31
2018-07-16T23:41:27.829Z,80.07
2018-07-16T23:43:56.344Z,79.33
2018-07-16T23:46:25.028Z,81.27
2018-07-16T23:48:53.611Z,79.76
2018-07-16T23:51:22.667Z,79.23
2018-07-16T23:54:03.439Z,80.01
2018-07-16T23:56:47.963Z,79.92
2018-07-16T23:59:16.829Z,79.48
